createdAt,value
2023-04-23T00:01:06.984Z,2.70
2023-04-23T00:03:36.478Z,2.55
2023-04-23T00:06:08.093Z,2.60
2023-04-23T00:08:35.418Z,2.83
2023-04-23T00:11:02.450Z,2.42
2023-04-23T00:13:29.415Z,2.43
2023-04-23T00:15:56.305Z,2.30
2023-04-23T00:18:22.956Z,2.47
2023-04-23T00:20:49.635Z,2.60
2023-04-23T00:23:16.357Z,2.90
2023-04-23T00:25:43.156Z,2.50
2023-04-23T00:28:09.939Z,2.60
2023-04-23T00:30:36.540Z,2.60
2023-04-23T00:33:03.319Z,2.88
2023-04-23T00:35:30.014Z,3.00
2023-04-23T00:37:56.789Z,2.90
2023-04-23T00:40:23.714Z,2.80
2023-04-23T00:42:52.215Z,2.80
2023-04-23T00:45:19.097Z,3.10
2023-04-23T00:47:46.995Z,3.50
2023-04-23T00:50:13.754Z,3.60
2023-04-23T00:52:40.863Z,3.53
2023-04-23T00:55:09.008Z,4.00
2023-04-23T00:57:39.449Z,3.47
2023-04-23T01:00:07.987Z,3.92
2023-04-23T01:02:36.788Z,3.37
2023-04-23T01:05:05.113Z,3.30
2023-04-23T01:07:34.397Z,3.03
2023-04-23T01:10:01.219Z,3.38
2023-04-23T01:12:27.949Z,3.03
2023-04-23T01:14:54.712Z,3.40
2023-04-23T01:17:22.964Z,3.00
2023-04-23T01:19:49.899Z,3.25
2023-04-23T01:22:17.079Z,3.70
2023-04-23T01:24:43.954Z,3.70
2023-04-23T01:27:11.339Z,3.30
2023-04-23T01:29:39.052Z,3.60
2023-04-23T01:32:07.685Z,3.72
2023-04-23T01:34:38.712Z,4.13
2023-04-23T01:37:06.028Z,3.70
2023-04-23T01:39:33.500Z,3.50
2023-04-23T01:42:01.400Z,3.70
2023-04-23T01:44:28.355Z,3.35
2023-04-23T01:46:55.178Z,4.03
2023-04-23T01:49:21.829Z,3.75
2023-04-23T01:51:48.963Z,4.43
2023-04-23T01:54:15.566Z,4.35
2023-04-23T01:56:42.313Z,4.38
2023-04-23T01:59:08.977Z,3.70
2023-04-23T02:01:46.081Z,4.00
2023-04-23T02:04:14.654Z,4.20
2023-04-23T02:06:44.304Z,4.55
2023-04-23T02:09:11.890Z,5.10
2023-04-23T02:11:38.806Z,4.10
2023-04-23T02:14:06.674Z,4.00
2023-04-23T02:16:34.665Z,4.40
2023-04-23T02:19:01.966Z,3.78
2023-04-23T02:21:29.766Z,4.38
2023-04-23T02:23:56.460Z,4.10
2023-04-23T02:26:23.752Z,4.07
2023-04-23T02:28:50.986Z,3.90
2023-04-23T02:31:17.963Z,3.88
2023-04-23T02:33:44.848Z,4.90
2023-04-23T02:36:12.711Z,4.10
2023-04-23T02:38:44.694Z,4.30
2023-04-23T02:41:12.319Z,4.43
2023-04-23T02:43:38.999Z,4.53
2023-04-23T02:46:08.621Z,5.50
2023-04-23T02:48:41.703Z,4.38
2023-04-23T02:51:11.100Z,5.13
2023-04-23T02:53:37.861Z,4.20
2023-04-23T02:56:04.629Z,5.43
2023-04-23T02:58:32.025Z,5.60
2023-04-23T03:01:01.356Z,5.53
2023-04-23T03:03:32.173Z,6.00
2023-04-23T03:06:01.969Z,5.60
2023-04-23T03:08:28.750Z,4.90
2023-04-23T03:10:55.537Z,5.65
2023-04-23T03:13:22.565Z,6.30
2023-04-23T03:15:50.720Z,6.75
2023-04-23T03:18:18.019Z,6.13
2023-04-23T03:20:47.865Z,6.13
2023-04-23T03:23:14.891Z,6.63
2023-04-23T03:25:41.560Z,6.78
2023-04-23T03:28:08.285Z,6.25
2023-04-23T03:30:35.099Z,5.40
2023-04-23T03:33:02.741Z,5.97
2023-04-23T03:35:29.730Z,6.28
2023-04-23T03:37:59.136Z,6.28
2023-04-23T03:40:25.927Z,5.72
2023-04-23T03:42:58.030Z,5.53
2023-04-23T03:45:39.140Z,6.13
2023-04-23T03:48:05.898Z,5.57
2023-04-23T03:50:34.506Z,5.05
2023-04-23T03:53:11.369Z,4.60
2023-04-23T03:55:56.880Z,5.77
2023-04-23T03:58:24.466Z,6.90
2023-04-23T04:00:52.351Z,5.85
2023-04-23T04:03:19.261Z,5.55
2023-04-23T04:05:46.357Z,6.07
2023-04-23T04:08:13.231Z,5.80
2023-04-23T04:10:40.954Z,5.38
2023-04-23T04:13:07.712Z,5.18
2023-04-23T04:15:34.321Z,4.43
2023-04-23T04:18:01.297Z,6.72
2023-04-23T04:20:30.743Z,6.40
2023-04-23T04:22:57.428Z,5.32
2023-04-23T04:25:24.492Z,5.00
2023-04-23T04:27:51.250Z,5.57
2023-04-23T04:30:18.736Z,5.78
2023-04-23T04:32:46.301Z,5.93
2023-04-23T04:35:14.515Z,6.85
2023-04-23T04:37:41.936Z,4.97
2023-04-23T04:40:09.917Z,6.70
2023-04-23T04:42:37.312Z,6.45
2023-04-23T04:45:04.624Z,6.23
2023-04-23T04:47:32.755Z,6.43
2023-04-23T04:50:00.525Z,7.00
2023-04-23T04:52:27.718Z,6.00
2023-04-23T04:54:54.365Z,6.60
2023-04-23T04:57:22.870Z,6.07
2023-04-23T04:59:50.410Z,6.72
2023-04-23T05:02:17.161Z,6.20
2023-04-23T05:04:44.198Z,6.55
2023-04-23T05:07:11.166Z,6.43
2023-04-23T05:09:39.262Z,6.73
2023-04-23T05:12:07.446Z,5.50
2023-04-23T05:14:34.251Z,5.55
2023-04-23T05:17:01.180Z,5.55
2023-04-23T05:19:27.961Z,5.50
2023-04-23T05:21:54.711Z,7.03
2023-04-23T05:24:21.366Z,5.95
2023-04-23T05:26:48.654Z,4.90
2023-04-23T05:29:19.226Z,4.68
2023-04-23T05:31:46.683Z,5.40
2023-04-23T05:34:13.667Z,5.67
2023-04-23T05:36:51.468Z,4.75
2023-04-23T05:39:18.169Z,7.15
2023-04-23T05:41:53.424Z,5.50
2023-04-23T05:44:24.551Z,6.20
2023-04-23T05:46:52.351Z,7.00
2023-04-23T05:49:21.554Z,6.05
2023-04-23T05:51:51.844Z,5.80
2023-04-23T05:54:36.994Z,5.32
2023-04-23T05:57:05.163Z,5.28
2023-04-23T05:59:32.067Z,5.30
2023-04-23T06:01:58.744Z,4.38
2023-04-23T06:04:25.594Z,6.20
2023-04-23T06:06:56.077Z,5.63
2023-04-23T06:09:23.218Z,5.50
2023-04-23T06:11:52.194Z,5.93
2023-04-23T06:14:18.899Z,6.07
2023-04-23T06:16:45.633Z,6.63
2023-04-23T06:19:12.810Z,5.93
2023-04-23T06:21:42.560Z,5.60
2023-04-23T06:24:12.619Z,5.20
2023-04-23T06:26:39.420Z,5.70
2023-04-23T06:29:13.635Z,6.47
2023-04-23T06:31:51.152Z,6.45
2023-04-23T06:34:21.003Z,5.88
2023-04-23T06:36:47.832Z,5.80
2023-04-23T06:39:14.499Z,4.90
2023-04-23T06:41:41.164Z,4.57
2023-04-23T06:44:21.798Z,4.20
2023-04-23T06:46:54.390Z,4.40
2023-04-23T06:49:21.205Z,4.80
2023-04-23T06:51:48.304Z,3.75
2023-04-23T06:54:15.069Z,4.90
2023-04-23T06:56:42.691Z,4.53
2023-04-23T06:59:09.374Z,4.60
2023-04-23T07:01:43.966Z,5.17
2023-04-23T07:04:10.915Z,4.07
2023-04-23T07:06:43.154Z,5.25
2023-04-23T07:09:09.858Z,4.32
2023-04-23T07:11:37.080Z,4.97
2023-04-23T07:14:04.395Z,4.50
2023-04-23T07:16:33.716Z,4.40
2023-04-23T07:19:02.287Z,3.85
2023-04-23T07:21:29.277Z,4.38
2023-04-23T07:23:58.174Z,4.22
2023-04-23T07:26:25.470Z,4.10
2023-04-23T07:28:52.885Z,3.95
2023-04-23T07:31:23.971Z,4.40
2023-04-23T07:33:50.712Z,3.90
2023-04-23T07:36:17.280Z,3.50
2023-04-23T07:38:45.089Z,4.10
2023-04-23T07:41:11.832Z,3.97
2023-04-23T07:43:39.107Z,3.95
2023-04-23T07:46:07.600Z,3.50
2023-04-23T07:48:34.874Z,3.13
2023-04-23T07:51:02.418Z,2.37
2023-04-23T07:53:29.132Z,3.35
2023-04-23T07:55:56.604Z,3.03
2023-04-23T07:58:24.987Z,3.30
2023-04-23T08:00:52.118Z,2.90
2023-04-23T08:03:19.282Z,2.37
2023-04-23T08:05:46.315Z,3.10
2023-04-23T08:08:13.227Z,3.13
2023-04-23T08:10:40.430Z,2.90
2023-04-23T08:13:07.698Z,2.53
2023-04-23T08:15:34.403Z,2.53
2023-04-23T08:18:01.627Z,2.17
2023-04-23T08:20:28.445Z,2.38
2023-04-23T08:22:55.763Z,2.50
2023-04-23T08:25:22.690Z,3.05
2023-04-23T08:27:50.039Z,2.33
2023-04-23T08:30:16.880Z,2.55
2023-04-23T08:32:43.636Z,2.80
2023-04-23T08:35:10.517Z,2.10
2023-04-23T08:37:39.109Z,2.35
2023-04-23T08:40:07.782Z,1.93
2023-04-23T08:43:20.516Z,1.98
2023-04-23T08:45:49.311Z,2.22
2023-04-23T08:48:16.846Z,2.30
2023-04-23T08:50:44.883Z,2.47
2023-04-23T08:53:18.070Z,2.20
2023-04-23T08:55:45.912Z,2.22
2023-04-23T08:58:13.287Z,2.30
2023-04-23T09:00:40.884Z,2.13
2023-04-23T09:03:08.918Z,2.08
2023-04-23T09:05:40.366Z,1.70
2023-04-23T09:08:07.317Z,2.30
2023-04-23T09:10:37.438Z,2.20
2023-04-23T09:13:04.218Z,1.95
2023-04-23T09:15:31.403Z,2.00
2023-04-23T09:18:00.837Z,2.20
2023-04-23T09:20:27.705Z,2.78
2023-04-23T09:22:54.367Z,2.30
2023-04-23T09:25:23.430Z,1.88
2023-04-23T09:27:52.238Z,1.73
2023-04-23T09:30:20.059Z,1.70
2023-04-23T09:32:47.635Z,1.33
2023-04-23T09:35:17.106Z,1.70
2023-04-23T09:37:49.440Z,1.90
2023-04-23T09:40:20.121Z,1.55
2023-04-23T09:42:55.984Z,1.93
2023-04-23T09:45:25.698Z,1.88
2023-04-23T09:47:58.448Z,1.88
2023-04-23T09:50:36.995Z,1.90
2023-04-23T09:53:08.128Z,1.98
2023-04-23T09:55:38.816Z,1.40
2023-04-23T09:58:15.939Z,1.50
2023-04-23T10:00:43.258Z,1.90
2023-04-23T10:03:13.399Z,1.52
2023-04-23T10:05:59.664Z,1.48
2023-04-23T10:08:28.476Z,1.53
2023-04-23T10:11:09.626Z,1.58
2023-04-23T10:13:41.462Z,1.42
2023-04-23T10:16:21.696Z,1.48
2023-04-23T10:18:52.267Z,1.40
2023-04-23T10:21:20.245Z,1.30
2023-04-23T10:23:50.081Z,1.58
2023-04-23T10:26:20.321Z,1.55
2023-04-23T10:28:48.646Z,1.60
2023-04-23T10:31:16.000Z,1.30
2023-04-23T10:33:56.070Z,1.60
2023-04-23T10:36:27.710Z,1.63
2023-04-23T10:38:59.220Z,1.70
2023-04-23T10:41:35.138Z,1.60
2023-04-23T10:44:03.634Z,1.80
2023-04-23T10:46:36.447Z,1.50
2023-04-23T10:49:15.508Z,1.38
2023-04-23T10:54:19.641Z,1.13
2023-04-23T10:56:46.483Z,1.60
2023-04-23T10:59:20.681Z,1.53
2023-04-23T11:01:48.767Z,1.50
2023-04-23T11:04:23.430Z,1.75
2023-04-23T11:06:55.411Z,1.38
2023-04-23T11:09:46.856Z,1.83
2023-04-23T11:12:32.772Z,1.20
2023-04-23T11:15:00.344Z,1.30
2023-04-23T11:17:33.208Z,1.48
2023-04-23T11:20:20.342Z,1.42
2023-04-23T11:22:49.341Z,1.50
2023-04-23T11:25:30.698Z,1.67
2023-04-23T11:28:01.515Z,1.80
2023-04-23T11:30:32.152Z,1.73
2023-04-23T11:33:01.367Z,1.45
2023-04-23T11:35:29.573Z,1.60
2023-04-23T11:37:57.087Z,1.60
2023-04-23T11:40:24.350Z,1.45
2023-04-23T11:42:53.771Z,1.45
2023-04-23T11:45:23.847Z,1.38
2023-04-23T11:47:59.396Z,1.60
2023-04-23T11:50:33.172Z,1.63
2023-04-23T11:53:09.280Z,1.40
2023-04-23T11:55:36.477Z,1.13
2023-04-23T11:58:03.583Z,1.20
2023-04-23T12:00:30.357Z,1.30
2023-04-23T12:02:58.548Z,1.40
2023-04-23T12:05:30.535Z,1.50
2023-04-23T12:08:23.345Z,1.42
2023-04-23T12:10:54.980Z,1.30
2023-04-23T12:13:24.543Z,1.45
2023-04-23T12:16:00.564Z,1.30
2023-04-23T12:18:30.463Z,1.40
2023-04-23T12:21:05.775Z,1.60
2023-04-23T12:23:33.783Z,1.33
2023-04-23T12:26:00.422Z,1.10
2023-04-23T12:28:27.708Z,1.53
2023-04-23T12:31:01.129Z,1.35
2023-04-23T12:33:31.500Z,1.60
2023-04-23T12:35:58.306Z,1.67
2023-04-23T12:38:25.952Z,1.25
2023-04-23T12:40:59.615Z,1.53
2023-04-23T12:43:26.969Z,1.40
2023-04-23T12:45:56.977Z,1.63
2023-04-23T12:48:23.850Z,1.48
2023-04-23T12:50:50.724Z,1.40
2023-04-23T12:53:18.303Z,1.67
2023-04-23T12:55:46.010Z,1.50
2023-04-23T12:58:13.008Z,1.20
2023-04-23T13:00:39.667Z,1.40
2023-04-23T13:03:06.430Z,1.50
2023-04-23T13:05:33.182Z,1.27
2023-04-23T13:08:02.675Z,1.40
2023-04-23T13:10:30.927Z,1.40
2023-04-23T13:13:00.521Z,1.38
2023-04-23T13:15:27.343Z,1.33
2023-04-23T13:17:54.021Z,1.20
2023-04-23T13:20:21.334Z,1.30
2023-04-23T13:22:47.999Z,1.30
2023-04-23T13:25:14.754Z,1.30
2023-04-23T13:27:41.471Z,1.40
2023-04-23T13:30:08.805Z,1.20
2023-04-23T13:32:35.506Z,1.20
2023-04-23T13:35:05.072Z,1.30
2023-04-23T13:37:32.086Z,1.23
2023-04-23T13:39:58.804Z,1.17
2023-04-23T13:42:25.644Z,1.10
2023-04-23T13:44:52.586Z,1.30
2023-04-23T13:47:19.403Z,1.27
2023-04-23T13:49:46.042Z,1.10
2023-04-23T13:52:12.665Z,1.30
2023-04-23T13:54:39.936Z,1.20
2023-04-23T13:57:06.889Z,1.20
2023-04-23T13:59:33.577Z,1.10
2023-04-23T14:02:00.292Z,1.20
2023-04-23T14:04:27.233Z,1.13
2023-04-23T14:06:54.005Z,1.30
2023-04-23T14:09:22.397Z,1.48
2023-04-23T14:11:49.650Z,1.33
2023-04-23T14:14:16.683Z,1.02
2023-04-23T14:16:43.868Z,1.00
2023-04-23T14:19:14.149Z,1.10
2023-04-23T14:21:41.684Z,1.00
2023-04-23T14:24:22.814Z,1.10
2023-04-23T14:26:50.302Z,1.13
2023-04-23T14:29:23.028Z,1.20
2023-04-23T14:31:50.151Z,0.90
2023-04-23T14:34:16.806Z,1.10
2023-04-23T14:36:44.607Z,1.20
2023-04-23T14:39:20.045Z,1.45
2023-04-23T14:41:46.889Z,1.30
2023-04-23T14:44:13.757Z,1.10
2023-04-23T14:46:40.498Z,1.00
2023-04-23T14:49:07.396Z,1.50
2023-04-23T14:51:37.544Z,0.88
2023-04-23T14:54:04.996Z,1.00
2023-04-23T14:56:56.565Z,1.00
2023-04-23T14:59:23.728Z,1.20
2023-04-23T15:01:50.898Z,1.50
2023-04-23T15:04:17.865Z,1.00
2023-04-23T15:06:44.813Z,1.15
2023-04-23T15:09:13.723Z,0.90
2023-04-23T15:11:41.777Z,1.17
2023-04-23T15:14:23.229Z,1.20
2023-04-23T15:17:02.031Z,1.30
2023-04-23T15:19:31.046Z,1.10
2023-04-23T15:21:57.951Z,1.30
2023-04-23T15:24:24.808Z,0.90
2023-04-23T15:26:55.230Z,1.00
2023-04-23T15:29:25.044Z,1.08
2023-04-23T15:31:57.965Z,0.82
2023-04-23T15:34:25.017Z,1.07
2023-04-23T15:36:51.616Z,0.90
2023-04-23T15:39:18.300Z,1.40
2023-04-23T15:41:46.328Z,1.10
2023-04-23T15:44:13.541Z,1.30
2023-04-23T15:46:40.329Z,1.30
2023-04-23T15:49:09.254Z,1.58
2023-04-23T15:51:46.753Z,1.17
2023-04-23T15:54:15.127Z,1.00
2023-04-23T15:56:57.076Z,1.20
2023-04-23T15:59:30.869Z,1.10
2023-04-23T16:04:42.318Z,1.10
2023-04-23T16:07:12.040Z,1.20
2023-04-23T16:09:39.096Z,0.90
2023-04-23T16:12:07.043Z,0.90
2023-04-23T16:15:03.059Z,1.10
2023-04-23T16:17:33.976Z,1.10
2023-04-23T16:20:05.024Z,1.08
2023-04-23T16:22:31.943Z,1.10
2023-04-23T16:25:06.149Z,1.23
2023-04-23T16:27:39.259Z,1.20
2023-04-23T16:30:06.565Z,1.58
2023-04-23T16:32:35.053Z,1.20
2023-04-23T16:35:03.604Z,1.40
2023-04-23T16:37:30.845Z,1.00
2023-04-23T16:39:57.571Z,1.27
2023-04-23T16:42:24.278Z,1.20
2023-04-23T16:44:51.085Z,0.90
2023-04-23T16:47:18.139Z,1.00
2023-04-23T16:49:44.890Z,0.83
2023-04-23T16:52:11.572Z,1.15
2023-04-23T16:54:38.337Z,1.70
2023-04-23T16:57:06.982Z,1.65
2023-04-23T16:59:33.865Z,2.45
2023-04-23T17:02:00.889Z,2.80
2023-04-23T17:04:27.759Z,1.92
2023-04-23T17:06:54.649Z,1.88
2023-04-23T17:09:21.572Z,2.55
2023-04-23T17:11:48.301Z,2.15
2023-04-23T17:14:19.509Z,2.13
2023-04-23T17:16:46.834Z,1.83
2023-04-23T17:19:13.449Z,1.60
2023-04-23T17:21:40.390Z,1.40
2023-04-23T17:24:07.617Z,1.40
2023-04-23T17:26:34.537Z,1.60
2023-04-23T17:29:01.421Z,1.30
2023-04-23T17:31:28.798Z,1.95
2023-04-23T17:33:56.441Z,2.38
2023-04-23T17:36:23.274Z,2.47
2023-04-23T17:38:50.024Z,2.00
2023-04-23T17:41:17.698Z,2.30
2023-04-23T17:43:44.814Z,2.10
2023-04-23T17:46:11.572Z,2.00
2023-04-23T17:48:38.386Z,1.50
2023-04-23T17:51:05.114Z,1.40
2023-04-23T17:53:31.991Z,1.50
2023-04-23T17:56:02.773Z,1.73
2023-04-23T17:58:30.653Z,1.55
2023-04-23T18:00:57.517Z,1.65
2023-04-23T18:03:24.905Z,1.40
2023-04-23T18:05:52.210Z,1.58
2023-04-23T18:08:20.991Z,1.42
2023-04-23T18:10:47.950Z,1.67
2023-04-23T18:13:15.013Z,2.05
2023-04-23T18:15:42.496Z,1.90
2023-04-23T18:18:09.604Z,2.08
2023-04-23T18:20:38.590Z,2.33
2023-04-23T18:23:06.798Z,2.70
2023-04-23T18:25:33.721Z,3.25
2023-04-23T18:28:00.528Z,2.67
2023-04-23T18:30:27.458Z,2.70
2023-04-23T18:33:08.859Z,2.50
2023-04-23T18:35:35.841Z,2.65
2023-04-23T18:38:11.141Z,2.80
2023-04-23T18:40:37.937Z,2.23
2023-04-23T18:43:04.680Z,3.40
2023-04-23T18:45:31.515Z,3.20
2023-04-23T18:48:04.272Z,2.53
2023-04-23T18:50:38.365Z,2.17
2023-04-23T18:53:05.272Z,2.57
2023-04-23T18:55:31.948Z,2.20
2023-04-23T18:57:58.997Z,2.45
2023-04-23T19:00:25.855Z,2.05
2023-04-23T19:02:52.708Z,2.08
2023-04-23T19:05:19.970Z,2.37
2023-04-23T19:07:48.383Z,1.92
2023-04-23T19:10:16.426Z,1.90
2023-04-23T19:12:44.064Z,1.95
2023-04-23T19:15:11.569Z,2.10
2023-04-23T19:17:38.668Z,2.00
2023-04-23T19:20:09.351Z,2.67
2023-04-23T19:22:36.055Z,2.40
2023-04-23T19:25:02.827Z,1.98
2023-04-23T19:27:29.540Z,2.85
2023-04-23T19:29:56.697Z,2.43
2023-04-23T19:32:23.367Z,2.20
2023-04-23T19:34:50.009Z,2.10
2023-04-23T19:37:16.790Z,1.80
2023-04-23T19:39:43.750Z,1.80
2023-04-23T19:42:10.872Z,1.90
2023-04-23T19:44:40.127Z,1.90
2023-04-23T19:47:06.886Z,1.80
2023-04-23T19:49:33.651Z,2.70
2023-04-23T19:52:03.292Z,2.58
2023-04-23T19:54:30.035Z,2.27
2023-04-23T19:56:56.734Z,1.90
2023-04-23T19:59:23.857Z,2.00
2023-04-23T20:01:51.282Z,2.38
2023-04-23T20:04:18.010Z,2.13
2023-04-23T20:06:44.815Z,1.93
2023-04-23T20:09:18.212Z,1.90
2023-04-23T20:11:46.055Z,1.92
2023-04-23T20:14:13.617Z,2.38
2023-04-23T20:16:41.301Z,2.30
2023-04-23T20:19:11.160Z,2.30
2023-04-23T20:21:39.111Z,2.28
2023-04-23T20:24:07.623Z,2.25
2023-04-23T20:26:35.481Z,1.90
2023-04-23T20:29:02.694Z,1.98
2023-04-23T20:31:29.519Z,2.10
2023-04-23T20:33:56.490Z,2.25
2023-04-23T20:36:28.906Z,2.10
2023-04-23T20:38:59.008Z,2.03
2023-04-23T20:41:30.344Z,2.70
2023-04-23T20:43:58.885Z,2.40
2023-04-23T20:46:26.388Z,1.80
2023-04-23T20:48:55.187Z,2.05
2023-04-23T20:51:23.228Z,2.30
2023-04-23T20:53:51.413Z,2.30
2023-04-23T20:56:18.763Z,2.03
2023-04-23T20:58:46.169Z,2.17
2023-04-23T21:01:12.828Z,2.30
2023-04-23T21:03:40.868Z,2.20
2023-04-23T21:06:09.477Z,2.50
2023-04-23T21:08:38.935Z,2.40
2023-04-23T21:11:09.980Z,2.20
2023-04-23T21:13:37.961Z,2.70
2023-04-23T21:16:04.733Z,1.92
2023-04-23T21:18:31.755Z,2.20
2023-04-23T21:20:58.408Z,1.80
2023-04-23T21:23:25.280Z,1.85
2023-04-23T21:25:52.259Z,2.17
2023-04-23T21:28:19.467Z,3.20
2023-04-23T21:30:50.863Z,2.80
2023-04-23T21:33:19.265Z,2.13
2023-04-23T21:35:46.532Z,1.90
2023-04-23T21:38:13.372Z,1.70
2023-04-23T21:40:40.617Z,1.80
2023-04-23T21:43:07.953Z,2.13
2023-04-23T21:45:34.662Z,1.60
2023-04-23T21:48:02.030Z,1.60
2023-04-23T21:50:31.135Z,1.60
2023-04-23T21:52:58.542Z,1.58
2023-04-23T21:55:27.009Z,1.60
2023-04-23T21:57:56.431Z,1.63
2023-04-23T22:00:28.264Z,1.85
2023-04-23T22:02:55.915Z,1.67
2023-04-23T22:05:24.065Z,1.70
2023-04-23T22:07:55.383Z,2.05
2023-04-23T22:10:23.841Z,1.63
2023-04-23T22:12:50.860Z,1.50
2023-04-23T22:15:19.093Z,1.70
2023-04-23T22:17:50.310Z,1.52
2023-04-23T22:20:19.163Z,1.60
2023-04-23T22:22:46.420Z,1.93
2023-04-23T22:25:13.533Z,1.80
2023-04-23T22:27:41.636Z,1.85
2023-04-23T22:30:10.485Z,1.70
2023-04-23T22:32:38.516Z,1.50
2023-04-23T22:35:07.206Z,1.50
2023-04-23T22:37:35.256Z,1.45
2023-04-23T22:40:04.004Z,1.52
2023-04-23T22:42:31.146Z,1.40
2023-04-23T22:44:58.104Z,1.40
2023-04-23T22:47:25.164Z,1.40
2023-04-23T22:49:51.999Z,1.50
2023-04-23T22:52:19.049Z,1.70
2023-04-23T22:54:46.504Z,1.60
2023-04-23T22:57:13.193Z,1.65
2023-04-23T22:59:40.182Z,1.30
2023-04-23T23:02:07.716Z,1.30
2023-04-23T23:04:37.743Z,1.45
2023-04-23T23:07:08.489Z,1.45
2023-04-23T23:09:35.486Z,1.38
2023-04-23T23:12:03.640Z,1.30
2023-04-23T23:14:31.747Z,1.30
2023-04-23T23:16:58.863Z,1.35
2023-04-23T23:19:31.006Z,1.35
2023-04-23T23:21:57.690Z,1.00
2023-04-23T23:24:24.427Z,1.30
2023-04-23T23:26:51.179Z,1.40
2023-04-23T23:29:17.943Z,1.40
2023-04-23T23:31:44.967Z,1.35
2023-04-23T23:34:12.054Z,1.50
2023-04-23T23:36:38.725Z,1.50
2023-04-23T23:39:06.649Z,1.40
2023-04-23T23:41:33.650Z,1.50
2023-04-23T23:44:00.275Z,1.02
2023-04-23T23:46:27.121Z,1.20
2023-04-23T23:48:54.452Z,1.10
2023-04-23T23:51:21.318Z,1.20
2023-04-23T23:53:48.000Z,1.40
2023-04-23T23:56:14.703Z,1.20
2023-04-23T23:58:41.297Z,1.20
